sensor_id;sensor_type;location;lat;lon;timestamp;P1;durP1;ratioP1;P2;durP2;ratioP2
10162;SDS011;5123;52.556;13.384;2023-05-07T00:02:25;14.80;;;12.67;;
10162;SDS011;5123;52.556;13.384;2023-05-07T00:04:59;14.57;;;12.20;;
10162;SDS011;5123;52.556;13.384;2023-05-07T00:07:32;14.70;;;13.20;;
10162;SDS011;5123;52.556;13.384;2023-05-07T00:10:05;14.90;;;13.30;;
10162;SDS011;5123;52.556;13.384;2023-05-07T00:12:39;18.03;;;12.67;;
10162;SDS011;5123;52.556;13.384;2023-05-07T00:15:12;14.70;;;12.00;;
10162;SDS011;5123;52.556;13.384;2023-05-07T00:17:48;13.47;;;12.10;;
10162;SDS011;5123;52.556;13.384;2023-05-07T00:20:22;14.87;;;13.30;;
10162;SDS011;5123;52.556;13.384;2023-05-07T00:22:56;19.17;;;14.60;;
10162;SDS011;5123;52.556;13.384;2023-05-07T00:25:30;14.10;;;12.63;;
10162;SDS011;5123;52.556;13.384;2023-05-07T00:28:06;13.80;;;12.50;;
10162;SDS011;5123;52.556;13.384;2023-05-07T00:30:39;12.93;;;11.50;;
10162;SDS011;5123;52.556;13.384;2023-05-07T00:33:12;13.60;;;12.20;;
10162;SDS011;5123;52.556;13.384;2023-05-07T00:35:46;16.73;;;12.87;;
10162;SDS011;5123;52.556;13.384;2023-05-07T00:38:19;13.60;;;12.13;;
10162;SDS011;5123;52.556;13.384;2023-05-07T00:40:52;13.77;;;12.10;;
10162;SDS011;5123;52.556;13.384;2023-05-07T00:43:24;13.73;;;12.33;;
10162;SDS011;5123;52.556;13.384;2023-05-07T00:45:58;13.90;;;12.40;;
10162;SDS011;5123;52.556;13.384;2023-05-07T00:48:32;14.87;;;11.30;;
10162;SDS011;5123;52.556;13.384;2023-05-07T00:51:06;16.30;;;12.17;;
10162;SDS011;5123;52.556;13.384;2023-05-07T00:53:39;13.53;;;12.13;;
10162;SDS011;5123;52.556;13.384;2023-05-07T00:56:12;13.73;;;12.40;;
10162;SDS011;5123;52.556;13.384;2023-05-07T00:58:47;13.50;;;12.10;;
10162;SDS011;5123;52.556;13.384;2023-05-07T01:01:20;14.90;;;13.30;;
10162;SDS011;5123;52.556;13.384;2023-05-07T01:03:54;15.53;;;12.80;;
10162;SDS011;5123;52.556;13.384;2023-05-07T01:06:28;15.10;;;12.07;;
10162;SDS011;5123;52.556;13.384;2023-05-07T01:09:02;14.07;;;12.60;;
10162;SDS011;5123;52.556;13.384;2023-05-07T01:11:38;13.77;;;12.47;;
10162;SDS011;5123;52.556;13.384;2023-05-07T01:14:11;14.00;;;12.60;;
10162;SDS011;5123;52.556;13.384;2023-05-07T01:16:44;14.10;;;12.63;;
10162;SDS011;5123;52.556;13.384;2023-05-07T01:19:17;14.33;;;12.80;;
10162;SDS011;5123;52.556;13.384;2023-05-07T01:21:52;14.03;;;12.37;;
10162;SDS011;5123;52.556;13.384;2023-05-07T01:24:33;14.57;;;12.83;;
10162;SDS011;5123;52.556;13.384;2023-05-07T01:27:06;12.80;;;11.50;;
10162;SDS011;5123;52.556;13.384;2023-05-07T01:29:39;13.13;;;11.70;;
10162;SDS011;5123;52.556;13.384;2023-05-07T01:32:12;14.33;;;12.93;;
10162;SDS011;5123;52.556;13.384;2023-05-07T01:34:46;13.23;;;11.83;;
10162;SDS011;5123;52.556;13.384;2023-05-07T01:37:20;14.40;;;12.90;;
10162;SDS011;5123;52.556;13.384;2023-05-07T01:39:56;17.00;;;12.20;;
10162;SDS011;5123;52.556;13.384;2023-05-07T01:42:29;13.40;;;12.03;;
10162;SDS011;5123;52.556;13.384;2023-05-07T01:45:02;14.80;;;12.23;;
10162;SDS011;5123;52.556;13.384;2023-05-07T01:47:35;15.03;;;11.27;;
10162;SDS011;5123;52.556;13.384;2023-05-07T01:50:09;13.70;;;12.30;;
10162;SDS011;5123;52.556;13.384;2023-05-07T01:52:43;13.47;;;11.83;;
10162;SDS011;5123;52.556;13.384;2023-05-07T01:55:17;13.47;;;11.60;;
10162;SDS011;5123;52.556;13.384;2023-05-07T01:57:50;13.80;;;11.73;;
10162;SDS011;5123;52.556;13.384;2023-05-07T02:00:28;15.13;;;11.93;;
10162;SDS011;5123;52.556;13.384;2023-05-07T02:03:01;12.90;;;11.60;;
10162;SDS011;5123;52.556;13.384;2023-05-07T02:05:37;15.13;;;12.93;;
10162;SDS011;5123;52.556;13.384;2023-05-07T02:08:10;18.07;;;12.27;;
10162;SDS011;5123;52.556;13.384;2023-05-07T02:10:46;12.80;;;11.50;;
10162;SDS011;5123;52.556;13.384;2023-05-07T02:13:19;12.57;;;11.17;;
10162;SDS011;5123;52.556;13.384;2023-05-07T02:15:54;13.17;;;11.97;;
10162;SDS011;5123;52.556;13.384;2023-05-07T02:18:27;13.60;;;11.97;;
10162;SDS011;5123;52.556;13.384;2023-05-07T02:21:00;12.80;;;11.40;;
10162;SDS011;5123;52.556;13.384;2023-05-07T02:23:33;13.37;;;11.93;;
10162;SDS011;5123;52.556;13.384;2023-05-07T02:26:11;12.73;;;11.43;;
10162;SDS011;5123;52.556;13.384;2023-05-07T02:28:44;14.10;;;12.57;;
10162;SDS011;5123;52.556;13.384;2023-05-07T02:31:17;13.13;;;11.60;;
10162;SDS011;5123;52.556;13.384;2023-05-07T02:33:50;14.17;;;11.83;;
10162;SDS011;5123;52.556;13.384;2023-05-07T02:36:22;12.73;;;11.43;;
10162;SDS011;5123;52.556;13.384;2023-05-07T02:38:55;14.37;;;11.60;;
10162;SDS011;5123;52.556;13.384;2023-05-07T02:41:30;13.77;;;12.00;;
10162;SDS011;5123;52.556;13.384;2023-05-07T02:44:03;13.00;;;11.70;;
10162;SDS011;5123;52.556;13.384;2023-05-07T02:46:39;13.03;;;11.73;;
10162;SDS011;5123;52.556;13.384;2023-05-07T02:49:14;14.13;;;11.60;;
10162;SDS011;5123;52.556;13.384;2023-05-07T02:51:47;13.63;;;11.40;;
10162;SDS011;5123;52.556;13.384;2023-05-07T02:54:20;12.10;;;10.87;;
10162;SDS011;5123;52.556;13.384;2023-05-07T02:56:54;12.23;;;10.93;;
10162;SDS011;5123;52.556;13.384;2023-05-07T02:59:27;12.37;;;11.10;;
10162;SDS011;5123;52.556;13.384;2023-05-07T03:02:00;12.70;;;11.40;;
10162;SDS011;5123;52.556;13.384;2023-05-07T03:04:33;11.80;;;10.60;;
10162;SDS011;5123;52.556;13.384;2023-05-07T03:07:06;12.17;;;10.10;;
10162;SDS011;5123;52.556;13.384;2023-05-07T03:09:39;11.93;;;10.73;;
10162;SDS011;5123;52.556;13.384;2023-05-07T03:12:13;11.03;;;9.93;;
10162;SDS011;5123;52.556;13.384;2023-05-07T03:14:47;10.87;;;9.80;;
10162;SDS011;5123;52.556;13.384;2023-05-07T03:17:20;12.67;;;10.97;;
10162;SDS011;5123;52.556;13.384;2023-05-07T03:19:53;11.40;;;10.20;;
10162;SDS011;5123;52.556;13.384;2023-05-07T03:22:26;11.13;;;9.93;;
10162;SDS011;5123;52.556;13.384;2023-05-07T03:24:59;11.33;;;9.63;;
10162;SDS011;5123;52.556;13.384;2023-05-07T03:27:33;12.03;;;9.63;;
10162;SDS011;5123;52.556;13.384;2023-05-07T03:30:06;11.17;;;10.00;;
10162;SDS011;5123;52.556;13.384;2023-05-07T03:32:40;11.30;;;9.97;;
10162;SDS011;5123;52.556;13.384;2023-05-07T03:35:13;12.30;;;10.27;;
10162;SDS011;5123;52.556;13.384;2023-05-07T03:37:46;12.03;;;10.33;;
10162;SDS011;5123;52.556;13.384;2023-05-07T03:40:18;11.00;;;9.93;;
10162;SDS011;5123;52.556;13.384;2023-05-07T03:42:53;10.73;;;9.73;;
10162;SDS011;5123;52.556;13.384;2023-05-07T03:45:28;11.63;;;10.37;;
10162;SDS011;5123;52.556;13.384;2023-05-07T03:48:02;10.33;;;9.33;;
10162;SDS011;5123;52.556;13.384;2023-05-07T03:50:35;10.83;;;8.93;;
10162;SDS011;5123;52.556;13.384;2023-05-07T03:53:09;11.17;;;10.07;;
10162;SDS011;5123;52.556;13.384;2023-05-07T03:55:42;11.60;;;9.43;;
10162;SDS011;5123;52.556;13.384;2023-05-07T03:58:16;11.40;;;10.13;;
10162;SDS011;5123;52.556;13.384;2023-05-07T04:00:49;10.30;;;9.20;;
10162;SDS011;5123;52.556;13.384;2023-05-07T04:03:22;10.93;;;8.93;;
10162;SDS011;5123;52.556;13.384;2023-05-07T04:05:58;10.50;;;9.40;;
10162;SDS011;5123;52.556;13.384;2023-05-07T04:08:31;10.50;;;9.27;;
10162;SDS011;5123;52.556;13.384;2023-05-07T04:11:03;10.43;;;9.07;;
10162;SDS011;5123;52.556;13.384;2023-05-07T04:13:37;10.40;;;9.40;;
10162;SDS011;5123;52.556;13.384;2023-05-07T04:16:10;11.33;;;10.13;;
10162;SDS011;5123;52.556;13.384;2023-05-07T04:18:43;11.07;;;9.93;;
10162;SDS011;5123;52.556;13.384;2023-05-07T04:21:16;10.77;;;9.63;;
10162;SDS011;5123;52.556;13.384;2023-05-07T04:23:49;11.80;;;9.77;;
10162;SDS011;5123;52.556;13.384;2023-05-07T04:26:42;11.27;;;9.03;;
10162;SDS011;5123;52.556;13.384;2023-05-07T04:29:25;10.60;;;9.03;;
10162;SDS011;5123;52.556;13.384;2023-05-07T04:32:00;10.33;;;9.23;;
10162;SDS011;5123;52.556;13.384;2023-05-07T04:34:33;9.90;;;8.90;;
10162;SDS011;5123;52.556;13.384;2023-05-07T04:37:06;9.67;;;8.70;;
10162;SDS011;5123;52.556;13.384;2023-05-07T04:39:39;9.87;;;8.80;;
10162;SDS011;5123;52.556;13.384;2023-05-07T04:42:14;9.93;;;8.60;;
10162;SDS011;5123;52.556;13.384;2023-05-07T04:44:51;9.50;;;8.50;;
10162;SDS011;5123;52.556;13.384;2023-05-07T04:47:25;9.27;;;8.30;;
10162;SDS011;5123;52.556;13.384;2023-05-07T04:49:58;9.13;;;8.23;;
10162;SDS011;5123;52.556;13.384;2023-05-07T04:52:30;9.80;;;8.80;;
10162;SDS011;5123;52.556;13.384;2023-05-07T04:55:04;10.47;;;8.90;;
10162;SDS011;5123;52.556;13.384;2023-05-07T04:57:37;9.30;;;8.40;;
10162;SDS011;5123;52.556;13.384;2023-05-07T05:00:12;8.73;;;7.80;;
10162;SDS011;5123;52.556;13.384;2023-05-07T05:02:46;9.03;;;8.13;;
10162;SDS011;5123;52.556;13.384;2023-05-07T05:05:19;9.50;;;8.60;;
10162;SDS011;5123;52.556;13.384;2023-05-07T05:07:55;9.20;;;8.30;;
10162;SDS011;5123;52.556;13.384;2023-05-07T05:10:27;8.97;;;8.10;;
10162;SDS011;5123;52.556;13.384;2023-05-07T05:13:00;8.43;;;7.63;;
10162;SDS011;5123;52.556;13.384;2023-05-07T05:15:34;8.73;;;7.63;;
10162;SDS011;5123;52.556;13.384;2023-05-07T05:18:07;9.03;;;7.10;;
10162;SDS011;5123;52.556;13.384;2023-05-07T05:20:40;8.57;;;7.27;;
10162;SDS011;5123;52.556;13.384;2023-05-07T05:23:16;8.63;;;7.30;;
10162;SDS011;5123;52.556;13.384;2023-05-07T05:25:49;8.33;;;7.50;;
10162;SDS011;5123;52.556;13.384;2023-05-07T05:28:22;9.37;;;8.37;;
10162;SDS011;5123;52.556;13.384;2023-05-07T05:30:56;8.23;;;7.40;;
10162;SDS011;5123;52.556;13.384;2023-05-07T05:33:29;7.93;;;7.13;;
10162;SDS011;5123;52.556;13.384;2023-05-07T05:36:01;8.80;;;7.87;;
10162;SDS011;5123;52.556;13.384;2023-05-07T05:38:34;10.13;;;8.20;;
10162;SDS011;5123;52.556;13.384;2023-05-07T05:41:07;8.57;;;7.73;;
10162;SDS011;5123;52.556;13.384;2023-05-07T05:43:43;10.07;;;8.07;;
10162;SDS011;5123;52.556;13.384;2023-05-07T05:46:17;8.97;;;8.07;;
10162;SDS011;5123;52.556;13.384;2023-05-07T05:48:51;8.53;;;7.43;;
10162;SDS011;5123;52.556;13.384;2023-05-07T05:51:23;9.10;;;7.13;;
10162;SDS011;5123;52.556;13.384;2023-05-07T05:53:56;9.03;;;8.10;;
10162;SDS011;5123;52.556;13.384;2023-05-07T05:56:29;9.33;;;8.13;;
10162;SDS011;5123;52.556;13.384;2023-05-07T05:59:02;8.83;;;7.73;;
10162;SDS011;5123;52.556;13.384;2023-05-07T06:01:36;10.10;;;8.00;;
10162;SDS011;5123;52.556;13.384;2023-05-07T06:04:09;12.70;;;8.00;;
10162;SDS011;5123;52.556;13.384;2023-05-07T06:06:43;8.30;;;7.50;;
10162;SDS011;5123;52.556;13.384;2023-05-07T06:09:16;10.60;;;8.53;;
10162;SDS011;5123;52.556;13.384;2023-05-07T06:11:49;8.57;;;7.67;;
10162;SDS011;5123;52.556;13.384;2023-05-07T06:14:21;9.80;;;8.73;;
10162;SDS011;5123;52.556;13.384;2023-05-07T06:16:56;9.10;;;8.00;;
10162;SDS011;5123;52.556;13.384;2023-05-07T06:19:29;8.60;;;7.67;;
10162;SDS011;5123;52.556;13.384;2023-05-07T06:22:02;10.47;;;7.67;;
10162;SDS011;5123;52.556;13.384;2023-05-07T06:24:37;8.27;;;7.37;;
10162;SDS011;5123;52.556;13.384;2023-05-07T06:27:10;9.77;;;8.33;;
10162;SDS011;5123;52.556;13.384;2023-05-07T06:29:43;10.00;;;8.43;;
10162;SDS011;5123;52.556;13.384;2023-05-07T06:32:17;9.20;;;8.30;;
10162;SDS011;5123;52.556;13.384;2023-05-07T06:34:50;10.20;;;8.40;;
10162;SDS011;5123;52.556;13.384;2023-05-07T06:37:23;9.97;;;7.47;;
10162;SDS011;5123;52.556;13.384;2023-05-07T06:39:56;8.20;;;7.40;;
10162;SDS011;5123;52.556;13.384;2023-05-07T06:42:31;8.60;;;7.30;;
10162;SDS011;5123;52.556;13.384;2023-05-07T06:45:04;8.20;;;7.30;;
10162;SDS011;5123;52.556;13.384;2023-05-07T06:47:38;9.00;;;7.27;;
10162;SDS011;5123;52.556;13.384;2023-05-07T06:50:11;7.20;;;6.60;;
10162;SDS011;5123;52.556;13.384;2023-05-07T06:52:45;8.87;;;7.53;;
10162;SDS011;5123;52.556;13.384;2023-05-07T06:55:17;8.87;;;7.50;;
10162;SDS011;5123;52.556;13.384;2023-05-07T06:57:50;8.43;;;7.63;;
10162;SDS011;5123;52.556;13.384;2023-05-07T07:00:28;8.00;;;7.07;;
10162;SDS011;5123;52.556;13.384;2023-05-07T07:03:03;9.87;;;7.03;;
10162;SDS011;5123;52.556;13.384;2023-05-07T07:05:36;9.33;;;7.23;;
10162;SDS011;5123;52.556;13.384;2023-05-07T07:08:09;7.23;;;6.57;;
10162;SDS011;5123;52.556;13.384;2023-05-07T07:10:42;7.87;;;7.07;;
10162;SDS011;5123;52.556;13.384;2023-05-07T07:13:15;8.33;;;7.07;;
10162;SDS011;5123;52.556;13.384;2023-05-07T07:15:48;7.57;;;6.83;;
10162;SDS011;5123;52.556;13.384;2023-05-07T07:18:22;7.20;;;6.50;;
10162;SDS011;5123;52.556;13.384;2023-05-07T07:20:55;6.70;;;6.10;;
10162;SDS011;5123;52.556;13.384;2023-05-07T07:23:28;8.07;;;6.40;;
10162;SDS011;5123;52.556;13.384;2023-05-07T07:26:01;8.40;;;5.60;;
10162;SDS011;5123;52.556;13.384;2023-05-07T07:28:33;6.33;;;5.43;;
10162;SDS011;5123;52.556;13.384;2023-05-07T07:31:09;10.13;;;5.77;;
10162;SDS011;5123;52.556;13.384;2023-05-07T07:33:45;7.20;;;5.60;;
10162;SDS011;5123;52.556;13.384;2023-05-07T07:36:18;6.07;;;5.50;;
10162;SDS011;5123;52.556;13.384;2023-05-07T07:38:53;6.13;;;5.53;;
10162;SDS011;5123;52.556;13.384;2023-05-07T07:41:27;5.97;;;5.37;;
10162;SDS011;5123;52.556;13.384;2023-05-07T07:43:59;5.83;;;5.20;;
10162;SDS011;5123;52.556;13.384;2023-05-07T07:46:35;6.00;;;5.40;;
10162;SDS011;5123;52.556;13.384;2023-05-07T07:49:09;5.60;;;5.10;;
10162;SDS011;5123;52.556;13.384;2023-05-07T07:51:42;6.23;;;4.90;;
10162;SDS011;5123;52.556;13.384;2023-05-07T07:54:15;5.80;;;4.83;;
10162;SDS011;5123;52.556;13.384;2023-05-07T07:56:48;5.97;;;5.40;;
10162;SDS011;5123;52.556;13.384;2023-05-07T07:59:20;5.37;;;4.70;;
10162;SDS011;5123;52.556;13.384;2023-05-07T08:01:53;4.90;;;4.40;;
10162;SDS011;5123;52.556;13.384;2023-05-07T08:04:29;4.77;;;4.30;;
10162;SDS011;5123;52.556;13.384;2023-05-07T08:07:04;4.33;;;3.93;;
10162;SDS011;5123;52.556;13.384;2023-05-07T08:09:37;4.60;;;4.10;;
10162;SDS011;5123;52.556;13.384;2023-05-07T08:12:13;4.53;;;3.73;;
10162;SDS011;5123;52.556;13.384;2023-05-07T08:14:48;4.13;;;3.73;;
10162;SDS011;5123;52.556;13.384;2023-05-07T08:17:21;5.03;;;4.17;;
10162;SDS011;5123;52.556;13.384;2023-05-07T08:19:56;8.23;;;4.77;;
10162;SDS011;5123;52.556;13.384;2023-05-07T08:22:29;6.10;;;3.97;;
10162;SDS011;5123;52.556;13.384;2023-05-07T08:25:02;5.03;;;4.03;;
10162;SDS011;5123;52.556;13.384;2023-05-07T08:27:35;4.40;;;4.00;;
10162;SDS011;5123;52.556;13.384;2023-05-07T08:30:11;4.40;;;4.00;;
10162;SDS011;5123;52.556;13.384;2023-05-07T08:32:45;3.90;;;3.60;;
10162;SDS011;5123;52.556;13.384;2023-05-07T08:35:19;4.47;;;3.80;;
10162;SDS011;5123;52.556;13.384;2023-05-07T08:37:52;4.70;;;3.70;;
10162;SDS011;5123;52.556;13.384;2023-05-07T08:40:25;4.20;;;3.60;;
10162;SDS011;5123;52.556;13.384;2023-05-07T08:42:58;6.70;;;3.67;;
10162;SDS011;5123;52.556;13.384;2023-05-07T08:45:33;3.90;;;3.17;;
10162;SDS011;5123;52.556;13.384;2023-05-07T08:48:08;4.30;;;3.90;;
10162;SDS011;5123;52.556;13.384;2023-05-07T08:50:43;3.43;;;3.10;;
10162;SDS011;5123;52.556;13.384;2023-05-07T08:53:17;5.77;;;3.60;;
10162;SDS011;5123;52.556;13.384;2023-05-07T08:55:50;5.17;;;3.80;;
10162;SDS011;5123;52.556;13.384;2023-05-07T08:58:23;4.03;;;3.70;;
10162;SDS011;5123;52.556;13.384;2023-05-07T09:00:56;4.20;;;3.37;;
10162;SDS011;5123;52.556;13.384;2023-05-07T09:03:30;4.13;;;3.63;;
10162;SDS011;5123;52.556;13.384;2023-05-07T09:06:04;4.23;;;3.77;;
10162;SDS011;5123;52.556;13.384;2023-05-07T09:08:37;3.77;;;3.43;;
10162;SDS011;5123;52.556;13.384;2023-05-07T09:11:10;4.90;;;3.40;;
10162;SDS011;5123;52.556;13.384;2023-05-07T09:13:44;4.40;;;4.00;;
10162;SDS011;5123;52.556;13.384;2023-05-07T09:16:17;3.70;;;3.40;;
10162;SDS011;5123;52.556;13.384;2023-05-07T09:18:51;3.77;;;3.37;;
10162;SDS011;5123;52.556;13.384;2023-05-07T09:21:26;3.53;;;3.23;;
10162;SDS011;5123;52.556;13.384;2023-05-07T09:23:59;3.77;;;3.40;;
10162;SDS011;5123;52.556;13.384;2023-05-07T09:26:32;4.30;;;3.90;;
10162;SDS011;5123;52.556;13.384;2023-05-07T09:29:06;4.80;;;3.63;;
10162;SDS011;5123;52.556;13.384;2023-05-07T09:31:39;3.83;;;3.17;;
10162;SDS011;5123;52.556;13.384;2023-05-07T09:34:14;3.53;;;3.20;;
10162;SDS011;5123;52.556;13.384;2023-05-07T09:36:48;3.90;;;3.60;;
10162;SDS011;5123;52.556;13.384;2023-05-07T09:39:22;3.83;;;3.13;;
10162;SDS011;5123;52.556;13.384;2023-05-07T09:41:58;3.80;;;3.20;;
10162;SDS011;5123;52.556;13.384;2023-05-07T09:44:33;3.67;;;2.97;;
10162;SDS011;5123;52.556;13.384;2023-05-07T09:47:06;3.77;;;3.20;;
10162;SDS011;5123;52.556;13.384;2023-05-07T09:49:42;3.20;;;2.90;;
10162;SDS011;5123;52.556;13.384;2023-05-07T09:52:20;4.37;;;3.40;;
10162;SDS011;5123;52.556;13.384;2023-05-07T09:54:56;3.93;;;3.50;;
10162;SDS011;5123;52.556;13.384;2023-05-07T09:57:31;6.10;;;3.53;;
10162;SDS011;5123;52.556;13.384;2023-05-07T10:00:05;3.33;;;3.07;;
10162;SDS011;5123;52.556;13.384;2023-05-07T10:02:40;2.93;;;2.67;;
10162;SDS011;5123;52.556;13.384;2023-05-07T10:05:18;2.63;;;2.43;;
10162;SDS011;5123;52.556;13.384;2023-05-07T10:07:52;4.20;;;2.90;;
10162;SDS011;5123;52.556;13.384;2023-05-07T10:10:27;3.37;;;3.10;;
10162;SDS011;5123;52.556;13.384;2023-05-07T10:13:00;4.33;;;3.10;;
10162;SDS011;5123;52.556;13.384;2023-05-07T10:15:33;3.47;;;3.17;;
10162;SDS011;5123;52.556;13.384;2023-05-07T10:18:07;3.00;;;2.57;;
10162;SDS011;5123;52.556;13.384;2023-05-07T10:20:40;3.67;;;2.40;;
10162;SDS011;5123;52.556;13.384;2023-05-07T10:23:18;2.93;;;2.70;;
10162;SDS011;5123;52.556;13.384;2023-05-07T10:25:52;2.93;;;2.73;;
10162;SDS011;5123;52.556;13.384;2023-05-07T10:28:32;3.40;;;2.63;;
10162;SDS011;5123;52.556;13.384;2023-05-07T10:31:08;2.70;;;2.50;;
10162;SDS011;5123;52.556;13.384;2023-05-07T10:33:43;3.00;;;2.80;;
10162;SDS011;5123;52.556;13.384;2023-05-07T10:36:20;3.03;;;2.73;;
10162;SDS011;5123;52.556;13.384;2023-05-07T10:38:56;3.00;;;2.40;;
10162;SDS011;5123;52.556;13.384;2023-05-07T10:41:29;2.63;;;2.43;;
10162;SDS011;5123;52.556;13.384;2023-05-07T10:44:02;2.97;;;2.43;;
10162;SDS011;5123;52.556;13.384;2023-05-07T10:46:36;3.13;;;2.70;;
10162;SDS011;5123;52.556;13.384;2023-05-07T10:49:09;2.60;;;2.37;;
10162;SDS011;5123;52.556;13.384;2023-05-07T10:51:43;3.30;;;2.80;;
10162;SDS011;5123;52.556;13.384;2023-05-07T10:54:21;3.10;;;2.80;;
10162;SDS011;5123;52.556;13.384;2023-05-07T10:56:55;2.73;;;2.53;;
10162;SDS011;5123;52.556;13.384;2023-05-07T10:59:31;3.10;;;2.80;;
10162;SDS011;5123;52.556;13.384;2023-05-07T11:02:05;3.93;;;2.80;;
10162;SDS011;5123;52.556;13.384;2023-05-07T11:04:40;3.40;;;3.10;;
10162;SDS011;5123;52.556;13.384;2023-05-07T11:10:08;2.80;;;2.60;;
10162;SDS011;5123;52.556;13.384;2023-05-07T11:12:47;3.47;;;3.00;;
10162;SDS011;5123;52.556;13.384;2023-05-07T11:15:40;2.73;;;2.53;;
10162;SDS011;5123;52.556;13.384;2023-05-07T11:18:15;2.93;;;2.63;;
10162;SDS011;5123;52.556;13.384;2023-05-07T11:20:49;2.80;;;2.60;;
10162;SDS011;5123;52.556;13.384;2023-05-07T11:26:15;4.10;;;2.83;;
10162;SDS011;5123;52.556;13.384;2023-05-07T11:28:48;2.77;;;2.57;;
10162;SDS011;5123;52.556;13.384;2023-05-07T11:31:22;5.07;;;3.00;;
10162;SDS011;5123;52.556;13.384;2023-05-07T11:33:56;3.47;;;3.17;;
10162;SDS011;5123;52.556;13.384;2023-05-07T11:36:30;2.67;;;2.47;;
10162;SDS011;5123;52.556;13.384;2023-05-07T11:39:03;3.87;;;2.50;;
10162;SDS011;5123;52.556;13.384;2023-05-07T11:41:38;3.40;;;2.67;;
10162;SDS011;5123;52.556;13.384;2023-05-07T11:44:14;3.30;;;3.00;;
10162;SDS011;5123;52.556;13.384;2023-05-07T11:46:47;4.53;;;2.47;;
10162;SDS011;5123;52.556;13.384;2023-05-07T11:49:20;3.00;;;2.80;;
10162;SDS011;5123;52.556;13.384;2023-05-07T11:51:57;2.90;;;2.60;;
10162;SDS011;5123;52.556;13.384;2023-05-07T11:54:34;3.37;;;2.70;;
10162;SDS011;5123;52.556;13.384;2023-05-07T11:57:15;3.23;;;2.90;;
10162;SDS011;5123;52.556;13.384;2023-05-07T11:59:48;2.60;;;2.40;;
10162;SDS011;5123;52.556;13.384;2023-05-07T12:02:25;2.53;;;2.33;;
10162;SDS011;5123;52.556;13.384;2023-05-07T12:05:00;3.57;;;2.80;;
10162;SDS011;5123;52.556;13.384;2023-05-07T12:07:34;3.80;;;2.50;;
10162;SDS011;5123;52.556;13.384;2023-05-07T12:10:08;3.23;;;2.43;;
10162;SDS011;5123;52.556;13.384;2023-05-07T12:12:45;3.90;;;3.23;;
10162;SDS011;5123;52.556;13.384;2023-05-07T12:15:18;2.70;;;2.33;;
10162;SDS011;5123;52.556;13.384;2023-05-07T12:17:54;10.60;;;2.80;;
10162;SDS011;5123;52.556;13.384;2023-05-07T12:20:29;3.63;;;2.17;;
10162;SDS011;5123;52.556;13.384;2023-05-07T12:23:03;2.40;;;2.20;;
10162;SDS011;5123;52.556;13.384;2023-05-07T12:25:36;3.60;;;2.50;;
10162;SDS011;5123;52.556;13.384;2023-05-07T12:28:12;3.13;;;2.83;;
10162;SDS011;5123;52.556;13.384;2023-05-07T12:30:45;2.80;;;2.60;;
10162;SDS011;5123;52.556;13.384;2023-05-07T12:33:19;4.60;;;2.77;;
10162;SDS011;5123;52.556;13.384;2023-05-07T12:35:53;4.03;;;3.17;;
10162;SDS011;5123;52.556;13.384;2023-05-07T12:38:32;3.63;;;2.73;;
10162;SDS011;5123;52.556;13.384;2023-05-07T12:41:11;2.90;;;2.70;;
10162;SDS011;5123;52.556;13.384;2023-05-07T12:43:46;3.10;;;2.80;;
10162;SDS011;5123;52.556;13.384;2023-05-07T12:46:19;3.60;;;2.40;;
10162;SDS011;5123;52.556;13.384;2023-05-07T12:48:52;3.03;;;2.57;;
10162;SDS011;5123;52.556;13.384;2023-05-07T12:51:27;2.57;;;2.37;;
10162;SDS011;5123;52.556;13.384;2023-05-07T12:54:00;3.90;;;2.60;;
10162;SDS011;5123;52.556;13.384;2023-05-07T12:56:35;4.03;;;3.10;;
10162;SDS011;5123;52.556;13.384;2023-05-07T12:59:10;3.30;;;2.87;;
10162;SDS011;5123;52.556;13.384;2023-05-07T13:01:44;3.80;;;2.30;;
10162;SDS011;5123;52.556;13.384;2023-05-07T13:04:18;3.83;;;2.13;;
10162;SDS011;5123;52.556;13.384;2023-05-07T13:06:52;3.43;;;2.57;;
10162;SDS011;5123;52.556;13.384;2023-05-07T13:09:25;4.40;;;2.47;;
10162;SDS011;5123;52.556;13.384;2023-05-07T13:12:00;2.20;;;2.00;;
10162;SDS011;5123;52.556;13.384;2023-05-07T13:14:37;2.30;;;2.10;;
10162;SDS011;5123;52.556;13.384;2023-05-07T13:17:10;4.03;;;2.50;;
10162;SDS011;5123;52.556;13.384;2023-05-07T13:19:45;4.83;;;2.37;;
10162;SDS011;5123;52.556;13.384;2023-05-07T13:22:18;3.10;;;2.80;;
10162;SDS011;5123;52.556;13.384;2023-05-07T13:24:51;3.83;;;3.20;;
10162;SDS011;5123;52.556;13.384;2023-05-07T13:27:24;2.50;;;2.30;;
10162;SDS011;5123;52.556;13.384;2023-05-07T13:29:59;2.40;;;2.20;;
10162;SDS011;5123;52.556;13.384;2023-05-07T13:32:32;2.47;;;2.23;;
10162;SDS011;5123;52.556;13.384;2023-05-07T13:35:05;3.83;;;2.57;;
10162;SDS011;5123;52.556;13.384;2023-05-07T13:37:39;3.33;;;2.67;;
10162;SDS011;5123;52.556;13.384;2023-05-07T13:40:12;3.50;;;2.37;;
10162;SDS011;5123;52.556;13.384;2023-05-07T13:42:47;3.63;;;2.60;;
10162;SDS011;5123;52.556;13.384;2023-05-07T13:45:21;2.63;;;2.40;;
10162;SDS011;5123;52.556;13.384;2023-05-07T13:47:58;2.23;;;2.03;;
10162;SDS011;5123;52.556;13.384;2023-05-07T13:50:31;3.27;;;2.50;;
10162;SDS011;5123;52.556;13.384;2023-05-07T13:53:04;3.20;;;2.90;;
10162;SDS011;5123;52.556;13.384;2023-05-07T13:55:37;3.57;;;2.67;;
10162;SDS011;5123;52.556;13.384;2023-05-07T13:58:10;2.53;;;1.90;;
10162;SDS011;5123;52.556;13.384;2023-05-07T14:00:44;2.90;;;2.17;;
10162;SDS011;5123;52.556;13.384;2023-05-07T14:03:19;2.63;;;2.10;;
10162;SDS011;5123;52.556;13.384;2023-05-07T14:05:53;3.03;;;2.33;;
10162;SDS011;5123;52.556;13.384;2023-05-07T14:08:27;3.50;;;2.80;;
10162;SDS011;5123;52.556;13.384;2023-05-07T14:11:02;3.43;;;2.40;;
10162;SDS011;5123;52.556;13.384;2023-05-07T14:13:35;5.70;;;2.77;;
10162;SDS011;5123;52.556;13.384;2023-05-07T14:16:09;3.33;;;2.40;;
10162;SDS011;5123;52.556;13.384;2023-05-07T14:18:42;3.90;;;2.57;;
10162;SDS011;5123;52.556;13.384;2023-05-07T14:21:15;3.03;;;2.70;;
10162;SDS011;5123;52.556;13.384;2023-05-07T14:23:49;2.53;;;2.27;;
10162;SDS011;5123;52.556;13.384;2023-05-07T14:26:22;2.47;;;2.27;;
10162;SDS011;5123;52.556;13.384;2023-05-07T14:28:55;4.60;;;2.30;;
10162;SDS011;5123;52.556;13.384;2023-05-07T14:31:31;7.63;;;2.60;;
10162;SDS011;5123;52.556;13.384;2023-05-07T14:34:05;3.10;;;2.73;;
10162;SDS011;5123;52.556;13.384;2023-05-07T14:36:37;5.00;;;2.50;;
10162;SDS011;5123;52.556;13.384;2023-05-07T14:39:11;2.47;;;2.20;;
10162;SDS011;5123;52.556;13.384;2023-05-07T14:41:45;5.67;;;2.10;;
10162;SDS011;5123;52.556;13.384;2023-05-07T14:44:18;6.50;;;2.60;;
10162;SDS011;5123;52.556;13.384;2023-05-07T14:46:52;4.30;;;3.90;;
10162;SDS011;5123;52.556;13.384;2023-05-07T14:49:25;2.87;;;2.57;;
10162;SDS011;5123;52.556;13.384;2023-05-07T14:51:58;3.87;;;2.17;;
10162;SDS011;5123;52.556;13.384;2023-05-07T14:54:33;2.23;;;2.03;;
10162;SDS011;5123;52.556;13.384;2023-05-07T14:57:09;2.57;;;2.30;;
10162;SDS011;5123;52.556;13.384;2023-05-07T14:59:44;3.23;;;1.97;;
10162;SDS011;5123;52.556;13.384;2023-05-07T15:02:22;4.17;;;2.10;;
10162;SDS011;5123;52.556;13.384;2023-05-07T15:04:55;3.50;;;2.43;;
10162;SDS011;5123;52.556;13.384;2023-05-07T15:07:28;3.93;;;2.17;;
10162;SDS011;5123;52.556;13.384;2023-05-07T15:10:00;2.40;;;2.20;;
10162;SDS011;5123;52.556;13.384;2023-05-07T15:12:33;2.13;;;1.90;;
10162;SDS011;5123;52.556;13.384;2023-05-07T15:15:07;3.03;;;2.20;;
10162;SDS011;5123;52.556;13.384;2023-05-07T15:17:42;2.80;;;2.23;;
10162;SDS011;5123;52.556;13.384;2023-05-07T15:20:15;2.10;;;1.90;;
10162;SDS011;5123;52.556;13.384;2023-05-07T15:22:48;2.10;;;1.90;;
10162;SDS011;5123;52.556;13.384;2023-05-07T15:25:22;4.03;;;2.17;;
10162;SDS011;5123;52.556;13.384;2023-05-07T15:27:54;2.60;;;2.40;;